sensor_id;sensor_type;location;lat;lon;timestamp;temperature;humidity
54680;DHT22;40578;53.178;5.846;2023-02-18T00:01:57;6.90;99.90
54680;DHT22;40578;53.178;5.846;2023-02-18T00:04:22;6.90;99.90
54680;DHT22;40578;53.178;5.846;2023-02-18T00:06:48;6.90;99.90
54680;DHT22;40578;53.178;5.846;2023-02-18T00:09:14;6.90;99.90
54680;DHT22;40578;53.178;5.846;2023-02-18T00:11:39;6.90;99.90
54680;DHT22;40578;53.178;5.846;2023-02-18T00:14:11;6.90;99.90
54680;DHT22;40578;53.178;5.846;2023-02-18T00:16:37;6.90;99.90
54680;DHT22;40578;53.178;5.846;2023-02-18T00:19:05;6.90;99.90
54680;DHT22;40578;53.178;5.846;2023-02-18T00:21:32;7.10;99.90
54680;DHT22;40578;53.178;5.846;2023-02-18T00:23:58;6.90;99.90
54680;DHT22;40578;53.178;5.846;2023-02-18T00:26:25;6.90;99.90
54680;DHT22;40578;53.178;5.846;2023-02-18T00:28:51;6.90;99.90
54680;DHT22;40578;53.178;5.846;2023-02-18T00:31:22;6.90;99.90
54680;DHT22;40578;53.178;5.846;2023-02-18T00:33:47;7.10;99.90
54680;DHT22;40578;53.178;5.846;2023-02-18T00:36:16;6.90;99.90
54680;DHT22;40578;53.178;5.846;2023-02-18T00:38:46;6.90;99.90
54680;DHT22;40578;53.178;5.846;2023-02-18T00:41:13;6.90;99.90
54680;DHT22;40578;53.178;5.846;2023-02-18T00:43:38;6.80;99.90
54680;DHT22;40578;53.178;5.846;2023-02-18T00:46:04;6.70;99.90
54680;DHT22;40578;53.178;5.846;2023-02-18T00:48:31;6.80;99.90
54680;DHT22;40578;53.178;5.846;2023-02-18T00:50:56;6.80;99.90
54680;DHT22;40578;53.178;5.846;2023-02-18T00:53:22;7.80;99.90
54680;DHT22;40578;53.178;5.846;2023-02-18T00:55:49;6.90;99.90
54680;DHT22;40578;53.178;5.846;2023-02-18T00:58:15;7.00;99.90
54680;DHT22;40578;53.178;5.846;2023-02-18T01:00:40;7.00;99.90
54680;DHT22;40578;53.178;5.846;2023-02-18T01:03:06;7.10;99.90
54680;DHT22;40578;53.178;5.846;2023-02-18T01:05:32;7.00;99.90
54680;DHT22;40578;53.178;5.846;2023-02-18T01:07:58;7.10;99.90
54680;DHT22;40578;53.178;5.846;2023-02-18T01:10:24;7.70;99.90
54680;DHT22;40578;53.178;5.846;2023-02-18T01:12:50;7.20;99.90
54680;DHT22;40578;53.178;5.846;2023-02-18T01:15:16;7.20;99.90
54680;DHT22;40578;53.178;5.846;2023-02-18T01:17:42;7.20;99.90
54680;DHT22;40578;53.178;5.846;2023-02-18T01:20:09;7.20;99.90
54680;DHT22;40578;53.178;5.846;2023-02-18T01:22:35;7.20;99.90
54680;DHT22;40578;53.178;5.846;2023-02-18T01:25:01;7.30;99.90
54680;DHT22;40578;53.178;5.846;2023-02-18T01:27:27;7.30;99.90
54680;DHT22;40578;53.178;5.846;2023-02-18T01:29:53;7.40;99.90
54680;DHT22;40578;53.178;5.846;2023-02-18T01:32:19;7.20;99.90
54680;DHT22;40578;53.178;5.846;2023-02-18T01:34:44;7.20;99.90
54680;DHT22;40578;53.178;5.846;2023-02-18T01:37:11;7.20;99.90
54680;DHT22;40578;53.178;5.846;2023-02-18T01:39:37;7.30;99.90
54680;DHT22;40578;53.178;5.846;2023-02-18T01:42:02;7.30;99.90
54680;DHT22;40578;53.178;5.846;2023-02-18T01:44:34;7.20;99.90
54680;DHT22;40578;53.178;5.846;2023-02-18T01:47:00;9.00;99.90
54680;DHT22;40578;53.178;5.846;2023-02-18T01:49:29;7.20;99.90
54680;DHT22;40578;53.178;5.846;2023-02-18T01:52:06;8.90;99.90
54680;DHT22;40578;53.178;5.846;2023-02-18T01:54:35;7.20;99.90
54680;DHT22;40578;53.178;5.846;2023-02-18T01:59:37;7.60;99.90
54680;DHT22;40578;53.178;5.846;2023-02-18T02:02:04;7.30;99.90
54680;DHT22;40578;53.178;5.846;2023-02-18T02:04:31;7.30;99.90
54680;DHT22;40578;53.178;5.846;2023-02-18T02:06:57;7.30;99.90
54680;DHT22;40578;53.178;5.846;2023-02-18T02:09:25;7.20;99.90
54680;DHT22;40578;53.178;5.846;2023-02-18T02:25:03;7.10;99.90
54680;DHT22;40578;53.178;5.846;2023-02-18T02:43:50;7.10;99.90
54680;DHT22;40578;53.178;5.846;2023-02-18T02:46:31;7.10;99.90
54680;DHT22;40578;53.178;5.846;2023-02-18T02:49:17;7.20;99.90
54680;DHT22;40578;53.178;5.846;2023-02-18T02:52:07;7.10;99.90
54680;DHT22;40578;53.178;5.846;2023-02-18T02:54:34;8.40;99.90
54680;DHT22;40578;53.178;5.846;2023-02-18T02:59:43;7.10;99.90
54680;DHT22;40578;53.178;5.846;2023-02-18T03:19:13;7.40;99.90
54680;DHT22;40578;53.178;5.846;2023-02-18T03:24:37;7.50;99.90
54680;DHT22;40578;53.178;5.846;2023-02-18T03:29:52;7.60;99.90
54680;DHT22;40578;53.178;5.846;2023-02-18T03:32:21;7.60;99.90
54680;DHT22;40578;53.178;5.846;2023-02-18T03:34:51;7.70;99.90
54680;DHT22;40578;53.178;5.846;2023-02-18T03:37:18;7.60;99.90
54680;DHT22;40578;53.178;5.846;2023-02-18T03:39:49;7.70;99.90
54680;DHT22;40578;53.178;5.846;2023-02-18T03:42:17;7.70;99.90
54680;DHT22;40578;53.178;5.846;2023-02-18T03:44:44;7.90;99.90
54680;DHT22;40578;53.178;5.846;2023-02-18T03:47:10;7.70;99.90
54680;DHT22;40578;53.178;5.846;2023-02-18T03:49:36;7.70;99.90
54680;DHT22;40578;53.178;5.846;2023-02-18T03:52:02;7.70;99.90
54680;DHT22;40578;53.178;5.846;2023-02-18T03:54:27;7.60;99.90
54680;DHT22;40578;53.178;5.846;2023-02-18T03:56:53;7.70;99.90
54680;DHT22;40578;53.178;5.846;2023-02-18T03:59:19;7.70;99.90
54680;DHT22;40578;53.178;5.846;2023-02-18T04:01:44;7.70;99.90
54680;DHT22;40578;53.178;5.846;2023-02-18T04:04:10;7.80;99.90
54680;DHT22;40578;53.178;5.846;2023-02-18T04:06:35;9.30;99.90
54680;DHT22;40578;53.178;5.846;2023-02-18T04:09:01;7.70;99.90
54680;DHT22;40578;53.178;5.846;2023-02-18T04:11:39;7.70;99.90
54680;DHT22;40578;53.178;5.846;2023-02-18T04:14:05;7.70;99.90
54680;DHT22;40578;53.178;5.846;2023-02-18T04:16:31;7.70;99.90
54680;DHT22;40578;53.178;5.846;2023-02-18T04:18:57;7.60;99.90
54680;DHT22;40578;53.178;5.846;2023-02-18T04:21:23;8.40;99.90
54680;DHT22;40578;53.178;5.846;2023-02-18T04:23:48;9.20;99.90
54680;DHT22;40578;53.178;5.846;2023-02-18T04:26:14;7.70;99.90
54680;DHT22;40578;53.178;5.846;2023-02-18T04:28:40;7.80;99.90
54680;DHT22;40578;53.178;5.846;2023-02-18T04:31:05;7.60;99.90
54680;DHT22;40578;53.178;5.846;2023-02-18T04:33:31;7.70;99.90
54680;DHT22;40578;53.178;5.846;2023-02-18T04:35:56;8.20;99.90
54680;DHT22;40578;53.178;5.846;2023-02-18T04:38:22;7.60;99.90
54680;DHT22;40578;53.178;5.846;2023-02-18T04:40:48;7.70;99.90
54680;DHT22;40578;53.178;5.846;2023-02-18T04:43:13;7.70;99.90
54680;DHT22;40578;53.178;5.846;2023-02-18T04:45:39;7.50;99.90
54680;DHT22;40578;53.178;5.846;2023-02-18T04:48:05;7.80;99.90
54680;DHT22;40578;53.178;5.846;2023-02-18T04:50:31;7.60;99.90
54680;DHT22;40578;53.178;5.846;2023-02-18T04:52:56;8.60;99.90
54680;DHT22;40578;53.178;5.846;2023-02-18T04:55:22;7.60;99.90
54680;DHT22;40578;53.178;5.846;2023-02-18T04:57:48;8.10;99.90
54680;DHT22;40578;53.178;5.846;2023-02-18T05:00:16;7.80;99.90
54680;DHT22;40578;53.178;5.846;2023-02-18T05:02:43;7.70;99.90
54680;DHT22;40578;53.178;5.846;2023-02-18T05:05:09;7.90;99.90
54680;DHT22;40578;53.178;5.846;2023-02-18T05:07:35;7.80;99.90
54680;DHT22;40578;53.178;5.846;2023-02-18T05:10:01;7.90;99.90
54680;DHT22;40578;53.178;5.846;2023-02-18T05:12:27;7.60;99.90
54680;DHT22;40578;53.178;5.846;2023-02-18T05:14:53;8.00;99.90
54680;DHT22;40578;53.178;5.846;2023-02-18T05:17:18;7.90;99.90
54680;DHT22;40578;53.178;5.846;2023-02-18T05:19:44;7.70;99.90
54680;DHT22;40578;53.178;5.846;2023-02-18T05:22:09;7.70;99.90
54680;DHT22;40578;53.178;5.846;2023-02-18T05:24:35;7.70;99.90
54680;DHT22;40578;53.178;5.846;2023-02-18T05:27:01;7.80;99.90
54680;DHT22;40578;53.178;5.846;2023-02-18T05:29:26;7.90;99.90
54680;DHT22;40578;53.178;5.846;2023-02-18T05:31:52;8.10;99.90
54680;DHT22;40578;53.178;5.846;2023-02-18T05:34:18;8.30;99.90
54680;DHT22;40578;53.178;5.846;2023-02-18T05:36:43;8.60;99.90
54680;DHT22;40578;53.178;5.846;2023-02-18T05:39:09;8.30;99.90
54680;DHT22;40578;53.178;5.846;2023-02-18T05:41:34;8.30;99.90
54680;DHT22;40578;53.178;5.846;2023-02-18T05:44:00;8.10;99.90
54680;DHT22;40578;53.178;5.846;2023-02-18T05:46:44;8.10;99.90
54680;DHT22;40578;53.178;5.846;2023-02-18T05:49:10;8.30;99.90
54680;DHT22;40578;53.178;5.846;2023-02-18T05:51:36;9.10;99.90
54680;DHT22;40578;53.178;5.846;2023-02-18T05:54:03;8.30;99.90
54680;DHT22;40578;53.178;5.846;2023-02-18T05:56:28;8.50;99.90
54680;DHT22;40578;53.178;5.846;2023-02-18T05:58:54;8.60;99.90
54680;DHT22;40578;53.178;5.846;2023-02-18T06:01:20;8.60;99.90
54680;DHT22;40578;53.178;5.846;2023-02-18T06:03:45;8.70;99.90
54680;DHT22;40578;53.178;5.846;2023-02-18T06:06:11;9.20;99.90
54680;DHT22;40578;53.178;5.846;2023-02-18T06:08:37;8.80;99.90
54680;DHT22;40578;53.178;5.846;2023-02-18T06:11:02;9.00;99.90
54680;DHT22;40578;53.178;5.846;2023-02-18T06:13:28;9.00;99.90
54680;DHT22;40578;53.178;5.846;2023-02-18T06:15:54;9.00;99.90
54680;DHT22;40578;53.178;5.846;2023-02-18T06:18:20;9.10;99.90
54680;DHT22;40578;53.178;5.846;2023-02-18T06:20:47;9.10;99.90
54680;DHT22;40578;53.178;5.846;2023-02-18T06:23:13;9.80;99.90
54680;DHT22;40578;53.178;5.846;2023-02-18T06:25:39;9.30;99.90
54680;DHT22;40578;53.178;5.846;2023-02-18T06:28:05;9.30;99.90
54680;DHT22;40578;53.178;5.846;2023-02-18T06:30:31;9.20;99.90
54680;DHT22;40578;53.178;5.846;2023-02-18T06:32:56;9.20;99.90
54680;DHT22;40578;53.178;5.846;2023-02-18T06:35:22;9.30;99.90
54680;DHT22;40578;53.178;5.846;2023-02-18T06:37:47;9.30;99.90
54680;DHT22;40578;53.178;5.846;2023-02-18T06:40:13;9.40;99.90
54680;DHT22;40578;53.178;5.846;2023-02-18T06:42:39;9.20;99.90
54680;DHT22;40578;53.178;5.846;2023-02-18T06:45:05;9.30;99.90
54680;DHT22;40578;53.178;5.846;2023-02-18T06:47:33;9.30;99.90
54680;DHT22;40578;53.178;5.846;2023-02-18T06:49:59;9.40;99.90
54680;DHT22;40578;53.178;5.846;2023-02-18T06:52:25;9.40;99.90
54680;DHT22;40578;53.178;5.846;2023-02-18T06:54:50;9.20;99.90
54680;DHT22;40578;53.178;5.846;2023-02-18T06:57:16;9.30;99.90
54680;DHT22;40578;53.178;5.846;2023-02-18T06:59:42;9.40;99.90
54680;DHT22;40578;53.178;5.846;2023-02-18T07:02:10;9.30;99.90
54680;DHT22;40578;53.178;5.846;2023-02-18T07:04:36;9.30;99.90
54680;DHT22;40578;53.178;5.846;2023-02-18T07:07:02;9.30;99.90
54680;DHT22;40578;53.178;5.846;2023-02-18T07:09:28;9.30;99.90
54680;DHT22;40578;53.178;5.846;2023-02-18T07:11:53;9.40;99.90
54680;DHT22;40578;53.178;5.846;2023-02-18T07:14:19;9.30;99.90
54680;DHT22;40578;53.178;5.846;2023-02-18T07:16:45;9.30;99.90
54680;DHT22;40578;53.178;5.846;2023-02-18T07:19:10;9.40;99.90
54680;DHT22;40578;53.178;5.846;2023-02-18T07:21:36;9.30;99.90
54680;DHT22;40578;53.178;5.846;2023-02-18T07:24:03;9.30;99.90
54680;DHT22;40578;53.178;5.846;2023-02-18T07:26:28;9.40;99.90
54680;DHT22;40578;53.178;5.846;2023-02-18T07:28:54;9.40;99.90
54680;DHT22;40578;53.178;5.846;2023-02-18T07:31:20;9.30;99.90
54680;DHT22;40578;53.178;5.846;2023-02-18T07:33:45;9.40;99.90
54680;DHT22;40578;53.178;5.846;2023-02-18T07:36:11;9.30;99.90
54680;DHT22;40578;53.178;5.846;2023-02-18T07:38:37;9.90;99.90
54680;DHT22;40578;53.178;5.846;2023-02-18T07:41:02;9.30;99.90
54680;DHT22;40578;53.178;5.846;2023-02-18T07:43:28;9.30;99.90
54680;DHT22;40578;53.178;5.846;2023-02-18T07:45:54;9.30;99.90
54680;DHT22;40578;53.178;5.846;2023-02-18T07:48:19;9.30;99.90
54680;DHT22;40578;53.178;5.846;2023-02-18T07:50:45;9.20;99.90
54680;DHT22;40578;53.178;5.846;2023-02-18T07:53:13;9.20;99.90
54680;DHT22;40578;53.178;5.846;2023-02-18T07:55:39;9.20;99.90
54680;DHT22;40578;53.178;5.846;2023-02-18T07:58:15;9.30;99.90
54680;DHT22;40578;53.178;5.846;2023-02-18T08:00:41;9.20;99.90
54680;DHT22;40578;53.178;5.846;2023-02-18T08:03:06;10.00;99.90
54680;DHT22;40578;53.178;5.846;2023-02-18T08:05:32;9.20;99.90
54680;DHT22;40578;53.178;5.846;2023-02-18T08:07:58;9.20;99.90
54680;DHT22;40578;53.178;5.846;2023-02-18T08:10:23;9.30;99.90
54680;DHT22;40578;53.178;5.846;2023-02-18T08:12:49;9.20;99.90
54680;DHT22;40578;53.178;5.846;2023-02-18T08:15:15;9.20;99.90
54680;DHT22;40578;53.178;5.846;2023-02-18T08:17:40;9.20;99.90
54680;DHT22;40578;53.178;5.846;2023-02-18T08:20:07;9.30;99.90
54680;DHT22;40578;53.178;5.846;2023-02-18T08:22:32;9.20;99.90
54680;DHT22;40578;53.178;5.846;2023-02-18T08:24:58;9.20;99.90
54680;DHT22;40578;53.178;5.846;2023-02-18T08:27:24;9.30;99.90
54680;DHT22;40578;53.178;5.846;2023-02-18T08:29:50;9.20;99.90
54680;DHT22;40578;53.178;5.846;2023-02-18T08:32:16;9.20;99.90
54680;DHT22;40578;53.178;5.846;2023-02-18T08:34:41;9.20;99.90
54680;DHT22;40578;53.178;5.846;2023-02-18T08:37:07;9.30;99.90
54680;DHT22;40578;53.178;5.846;2023-02-18T08:39:37;9.30;99.90
54680;DHT22;40578;53.178;5.846;2023-02-18T08:42:03;9.10;99.90
54680;DHT22;40578;53.178;5.846;2023-02-18T08:44:29;9.10;99.90
54680;DHT22;40578;53.178;5.846;2023-02-18T08:46:54;9.20;99.90
54680;DHT22;40578;53.178;5.846;2023-02-18T08:49:20;9.10;99.90
54680;DHT22;40578;53.178;5.846;2023-02-18T08:51:49;9.10;99.90
54680;DHT22;40578;53.178;5.846;2023-02-18T08:54:15;9.10;99.90
54680;DHT22;40578;53.178;5.846;2023-02-18T08:56:41;9.20;99.90
54680;DHT22;40578;53.178;5.846;2023-02-18T08:59:06;9.20;99.90
54680;DHT22;40578;53.178;5.846;2023-02-18T09:01:32;9.20;99.90
54680;DHT22;40578;53.178;5.846;2023-02-18T09:03:58;9.20;99.90
54680;DHT22;40578;53.178;5.846;2023-02-18T09:06:23;9.20;99.90
54680;DHT22;40578;53.178;5.846;2023-02-18T09:08:49;9.20;99.90
54680;DHT22;40578;53.178;5.846;2023-02-18T09:11:16;9.20;99.90
54680;DHT22;40578;53.178;5.846;2023-02-18T09:13:41;9.20;99.90
54680;DHT22;40578;53.178;5.846;2023-02-18T09:16:11;9.30;99.90
54680;DHT22;40578;53.178;5.846;2023-02-18T09:18:37;9.30;99.90
54680;DHT22;40578;53.178;5.846;2023-02-18T09:21:05;9.30;99.90
54680;DHT22;40578;53.178;5.846;2023-02-18T09:23:32;9.20;99.90
54680;DHT22;40578;53.178;5.846;2023-02-18T09:25:58;9.50;99.90
54680;DHT22;40578;53.178;5.846;2023-02-18T09:28:25;9.20;99.90
54680;DHT22;40578;53.178;5.846;2023-02-18T09:30:51;9.20;99.90
54680;DHT22;40578;53.178;5.846;2023-02-18T09:33:17;9.30;99.90
54680;DHT22;40578;53.178;5.846;2023-02-18T09:35:45;10.10;99.90
54680;DHT22;40578;53.178;5.846;2023-02-18T09:38:14;9.40;99.90
54680;DHT22;40578;53.178;5.846;2023-02-18T09:40:47;9.70;99.90
54680;DHT22;40578;53.178;5.846;2023-02-18T09:46:00;9.40;99.90
54680;DHT22;40578;53.178;5.846;2023-02-18T09:48:29;9.40;99.90
54680;DHT22;40578;53.178;5.846;2023-02-18T09:50:56;9.50;99.90
54680;DHT22;40578;53.178;5.846;2023-02-18T09:53:23;9.60;99.90
54680;DHT22;40578;53.178;5.846;2023-02-18T09:55:51;9.60;99.90
54680;DHT22;40578;53.178;5.846;2023-02-18T09:58:29;9.50;99.90
54680;DHT22;40578;53.178;5.846;2023-02-18T10:03:49;9.60;99.90
54680;DHT22;40578;53.178;5.846;2023-02-18T10:06:21;9.70;99.90
54680;DHT22;40578;53.178;5.846;2023-02-18T10:08:49;9.70;99.90
54680;DHT22;40578;53.178;5.846;2023-02-18T10:11:23;9.80;99.90
54680;DHT22;40578;53.178;5.846;2023-02-18T10:13:53;9.90;99.90
54680;DHT22;40578;53.178;5.846;2023-02-18T10:16:21;10.00;99.90
54680;DHT22;40578;53.178;5.846;2023-02-18T10:18:52;9.90;99.90
54680;DHT22;40578;53.178;5.846;2023-02-18T10:21:24;9.90;99.90
54680;DHT22;40578;53.178;5.846;2023-02-18T10:26:41;10.00;99.90
54680;DHT22;40578;53.178;5.846;2023-02-18T10:29:16;10.00;99.90
54680;DHT22;40578;53.178;5.846;2023-02-18T10:31:45;10.20;99.90
54680;DHT22;40578;53.178;5.846;2023-02-18T10:34:23;10.20;99.90
54680;DHT22;40578;53.178;5.846;2023-02-18T10:36:54;10.20;99.90
54680;DHT22;40578;53.178;5.846;2023-02-18T10:39:51;10.20;99.90
54680;DHT22;40578;53.178;5.846;2023-02-18T10:47:47;10.50;99.90
54680;DHT22;40578;53.178;5.846;2023-02-18T10:50:39;10.50;99.90
54680;DHT22;40578;53.178;5.846;2023-02-18T10:53:32;10.60;99.90
54680;DHT22;40578;53.178;5.846;2023-02-18T10:55:59;10.60;99.90
54680;DHT22;40578;53.178;5.846;2023-02-18T10:58:46;10.60;99.90
54680;DHT22;40578;53.178;5.846;2023-02-18T11:01:14;11.30;99.90
54680;DHT22;40578;53.178;5.846;2023-02-18T11:03:44;10.70;99.90
54680;DHT22;40578;53.178;5.846;2023-02-18T11:06:33;10.70;99.90
54680;DHT22;40578;53.178;5.846;2023-02-18T11:09:02;10.70;99.90
54680;DHT22;40578;53.178;5.846;2023-02-18T11:11:36;10.80;99.90
54680;DHT22;40578;53.178;5.846;2023-02-18T11:14:04;11.60;99.90
54680;DHT22;40578;53.178;5.846;2023-02-18T11:16:43;10.70;99.90
54680;DHT22;40578;53.178;5.846;2023-02-18T11:19:32;10.70;99.90
54680;DHT22;40578;53.178;5.846;2023-02-18T11:22:17;10.70;99.90
54680;DHT22;40578;53.178;5.846;2023-02-18T11:24:43;10.70;99.90
54680;DHT22;40578;53.178;5.846;2023-02-18T11:30:04;10.70;99.90
54680;DHT22;40578;53.178;5.846;2023-02-18T11:32:33;10.70;99.90
54680;DHT22;40578;53.178;5.846;2023-02-18T11:35:01;10.70;99.90
54680;DHT22;40578;53.178;5.846;2023-02-18T11:37:27;10.70;99.90
54680;DHT22;40578;53.178;5.846;2023-02-18T11:39:56;10.70;99.90
54680;DHT22;40578;53.178;5.846;2023-02-18T11:42:24;10.80;99.90
54680;DHT22;40578;53.178;5.846;2023-02-18T11:45:00;10.80;99.90
54680;DHT22;40578;53.178;5.846;2023-02-18T11:47:30;12.20;99.90
54680;DHT22;40578;53.178;5.846;2023-02-18T11:52:39;10.70;99.90
54680;DHT22;40578;53.178;5.846;2023-02-18T11:58:02;10.70;99.90
54680;DHT22;40578;53.178;5.846;2023-02-18T12:02:57;10.80;99.90
54680;DHT22;40578;53.178;5.846;2023-02-18T12:05:25;11.30;99.90
54680;DHT22;40578;53.178;5.846;2023-02-18T12:08:00;10.90;99.90
54680;DHT22;40578;53.178;5.846;2023-02-18T12:10:32;10.90;99.90
54680;DHT22;40578;53.178;5.846;2023-02-18T12:13:00;10.90;99.90
54680;DHT22;40578;53.178;5.846;2023-02-18T12:21:14;11.20;99.90
54680;DHT22;40578;53.178;5.846;2023-02-18T12:32:29;11.20;99.90
54680;DHT22;40578;53.178;5.846;2023-02-18T12:57:04;11.00;99.90
54680;DHT22;40578;53.178;5.846;2023-02-18T13:02:33;11.00;99.90
54680;DHT22;40578;53.178;5.846;2023-02-18T13:13:25;11.00;99.90
54680;DHT22;40578;53.178;5.846;2023-02-18T13:18:37;11.10;99.90
54680;DHT22;40578;53.178;5.846;2023-02-18T13:21:08;11.10;99.90
54680;DHT22;40578;53.178;5.846;2023-02-18T13:26:17;11.00;99.90
54680;DHT22;40578;53.178;5.846;2023-02-18T13:31:40;11.00;99.90
54680;DHT22;40578;53.178;5.846;2023-02-18T13:34:19;11.00;99.90
54680;DHT22;40578;53.178;5.846;2023-02-18T13:39:31;11.10;99.90
54680;DHT22;40578;53.178;5.846;2023-02-18T13:47:37;11.40;99.90
54680;DHT22;40578;53.178;5.846;2023-02-18T13:55:40;11.10;99.90
54680;DHT22;40578;53.178;5.846;2023-02-18T13:58:15;11.10;99.90
54680;DHT22;40578;53.178;5.846;2023-02-18T14:01:35;11.10;99.90
54680;DHT22;40578;53.178;5.846;2023-02-18T14:08:42;11.10;99.90
54680;DHT22;40578;53.178;5.846;2023-02-18T14:13:51;11.00;99.90
54680;DHT22;40578;53.178;5.846;2023-02-18T14:16:19;11.00;99.90
54680;DHT22;40578;53.178;5.846;2023-02-18T14:26:28;10.90;99.90
54680;DHT22;40578;53.178;5.846;2023-02-18T14:29:15;10.80;99.90
54680;DHT22;40578;53.178;5.846;2023-02-18T14:31:47;10.80;99.90
54680;DHT22;40578;53.178;5.846;2023-02-18T14:42:10;11.20;99.90
54680;DHT22;40578;53.178;5.846;2023-02-18T14:44:57;10.80;99.90
54680;DHT22;40578;53.178;5.846;2023-02-18T14:48:08;10.70;99.90
54680;DHT22;40578;53.178;5.846;2023-02-18T14:50:34;11.00;99.90
54680;DHT22;40578;53.178;5.846;2023-02-18T14:53:11;10.70;99.90
54680;DHT22;40578;53.178;5.846;2023-02-18T14:55:45;10.60;99.90
54680;DHT22;40578;53.178;5.846;2023-02-18T15:00:42;10.60;99.90
54680;DHT22;40578;53.178;5.846;2023-02-18T15:03:17;10.80;99.90
54680;DHT22;40578;53.178;5.846;2023-02-18T15:05:45;10.50;99.90
54680;DHT22;40578;53.178;5.846;2023-02-18T15:08:20;10.50;99.90
54680;DHT22;40578;53.178;5.846;2023-02-18T15:10:50;10.50;99.90
54680;DHT22;40578;53.178;5.846;2023-02-18T15:13:18;10.60;99.90
54680;DHT22;40578;53.178;5.846;2023-02-18T15:15:51;11.20;99.90
54680;DHT22;40578;53.178;5.846;2023-02-18T15:18:22;10.50;99.90
54680;DHT22;40578;53.178;5.846;2023-02-18T15:20:50;10.80;99.90
54680;DHT22;40578;53.178;5.846;2023-02-18T15:23:16;10.50;99.90
54680;DHT22;40578;53.178;5.846;2023-02-18T15:25:46;10.50;99.90
54680;DHT22;40578;53.178;5.846;2023-02-18T15:28:30;10.50;99.90
54680;DHT22;40578;53.178;5.846;2023-02-18T15:30:59;10.40;99.90
54680;DHT22;40578;53.178;5.846;2023-02-18T15:33:26;10.40;99.90
54680;DHT22;40578;53.178;5.846;2023-02-18T15:36:00;11.00;99.90
54680;DHT22;40578;53.178;5.846;2023-02-18T15:38:26;10.90;99.90
54680;DHT22;40578;53.178;5.846;2023-02-18T15:40:53;10.40;99.90
54680;DHT22;40578;53.178;5.846;2023-02-18T15:43:22;10.30;99.90
54680;DHT22;40578;53.178;5.846;2023-02-18T15:45:50;10.30;99.90
54680;DHT22;40578;53.178;5.846;2023-02-18T15:50:50;10.20;99.90
54680;DHT22;40578;53.178;5.846;2023-02-18T15:53:17;10.20;99.90
54680;DHT22;40578;53.178;5.846;2023-02-18T15:55:47;10.20;99.90
54680;DHT22;40578;53.178;5.846;2023-02-18T15:58:27;10.30;99.90
54680;DHT22;40578;53.178;5.846;2023-02-18T16:00:55;10.30;99.90
54680;DHT22;40578;53.178;5.846;2023-02-18T16:08:33;10.90;99.90
54680;DHT22;40578;53.178;5.846;2023-02-18T16:11:04;10.10;99.90
54680;DHT22;40578;53.178;5.846;2023-02-18T16:13:31;10.10;99.90
54680;DHT22;40578;53.178;5.846;2023-02-18T16:15:58;10.10;99.90
54680;DHT22;40578;53.178;5.846;2023-02-18T16:20:58;10.00;99.90
54680;DHT22;40578;53.178;5.846;2023-02-18T16:23:34;10.00;99.90
54680;DHT22;40578;53.178;5.846;2023-02-18T16:31:42;9.90;99.90
54680;DHT22;40578;53.178;5.846;2023-02-18T16:34:07;9.90;99.90
54680;DHT22;40578;53.178;5.846;2023-02-18T16:36:33;9.80;99.90
54680;DHT22;40578;53.178;5.846;2023-02-18T16:38:59;9.80;99.90
54680;DHT22;40578;53.178;5.846;2023-02-18T16:41:27;9.90;99.90
54680;DHT22;40578;53.178;5.846;2023-02-18T16:43:53;10.50;99.90
54680;DHT22;40578;53.178;5.846;2023-02-18T16:46:21;9.80;99.90
54680;DHT22;40578;53.178;5.846;2023-02-18T16:48:54;10.10;99.90
54680;DHT22;40578;53.178;5.846;2023-02-18T16:51:32;9.60;99.90
54680;DHT22;40578;53.178;5.846;2023-02-18T16:53:59;9.60;99.90
54680;DHT22;40578;53.178;5.846;2023-02-18T16:56:26;10.20;99.90
54680;DHT22;40578;53.178;5.846;2023-02-18T16:58:55;9.60;99.90
54680;DHT22;40578;53.178;5.846;2023-02-18T17:02:02;10.00;99.90
54680;DHT22;40578;53.178;5.846;2023-02-18T17:04:14;9.70;99.90
54680;DHT22;40578;53.178;5.846;2023-02-18T17:06:41;9.60;99.90
54680;DHT22;40578;53.178;5.846;2023-02-18T17:09:12;9.60;99.90
54680;DHT22;40578;53.178;5.846;2023-02-18T17:11:41;9.60;99.90
54680;DHT22;40578;53.178;5.846;2023-02-18T17:14:13;9.60;99.90
54680;DHT22;40578;53.178;5.846;2023-02-18T17:16:39;9.50;99.90
54680;DHT22;40578;53.178;5.846;2023-02-18T17:19:04;9.50;99.90
54680;DHT22;40578;53.178;5.846;2023-02-18T17:21:30;9.50;99.90
54680;DHT22;40578;53.178;5.846;2023-02-18T17:23:56;9.50;99.90
54680;DHT22;40578;53.178;5.846;2023-02-18T17:26:24;9.70;99.90
54680;DHT22;40578;53.178;5.846;2023-02-18T17:28:51;9.50;99.90
54680;DHT22;40578;53.178;5.846;2023-02-18T17:31:23;9.50;99.90
54680;DHT22;40578;53.178;5.846;2023-02-18T17:33:51;9.50;99.90
54680;DHT22;40578;53.178;5.846;2023-02-18T17:36:18;9.50;99.90
54680;DHT22;40578;53.178;5.846;2023-02-18T17:38:44;9.50;99.90
54680;DHT22;40578;53.178;5.846;2023-02-18T17:41:11;9.40;99.90
54680;DHT22;40578;53.178;5.846;2023-02-18T17:43:37;9.40;99.90
54680;DHT22;40578;53.178;5.846;2023-02-18T17:46:11;9.40;99.90
54680;DHT22;40578;53.178;5.846;2023-02-18T17:48:37;9.40;99.90
54680;DHT22;40578;53.178;5.846;2023-02-18T17:51:04;9.40;99.90
54680;DHT22;40578;53.178;5.846;2023-02-18T17:53:34;9.40;99.90
54680;DHT22;40578;53.178;5.846;2023-02-18T17:56:01;9.30;99.90
54680;DHT22;40578;53.178;5.846;2023-02-18T17:58:27;9.30;99.90
54680;DHT22;40578;53.178;5.846;2023-02-18T18:00:54;9.20;99.90
54680;DHT22;40578;53.178;5.846;2023-02-18T18:03:21;9.30;99.90
54680;DHT22;40578;53.178;5.846;2023-02-18T18:05:48;9.20;99.90
54680;DHT22;40578;53.178;5.846;2023-02-18T18:08:16;9.20;99.90
54680;DHT22;40578;53.178;5.846;2023-02-18T18:10:51;9.20;99.90
54680;DHT22;40578;53.178;5.846;2023-02-18T18:13:30;9.20;99.90
54680;DHT22;40578;53.178;5.846;2023-02-18T18:15:57;9.10;99.90
54680;DHT22;40578;53.178;5.846;2023-02-18T18:18:24;9.50;99.90
54680;DHT22;40578;53.178;5.846;2023-02-18T18:21:00;9.10;99.90
54680;DHT22;40578;53.178;5.846;2023-02-18T18:23:26;9.10;99.90
54680;DHT22;40578;53.178;5.846;2023-02-18T18:25:55;9.10;99.90
54680;DHT22;40578;53.178;5.846;2023-02-18T18:28:22;9.40;99.90
54680;DHT22;40578;53.178;5.846;2023-02-18T18:30:49;9.10;99.90
54680;DHT22;40578;53.178;5.846;2023-02-18T18:33:18;9.00;99.90
54680;DHT22;40578;53.178;5.846;2023-02-18T18:35:46;9.00;99.90
54680;DHT22;40578;53.178;5.846;2023-02-18T18:38:16;9.00;99.90
54680;DHT22;40578;53.178;5.846;2023-02-18T18:40:43;9.00;99.90
54680;DHT22;40578;53.178;5.846;2023-02-18T18:43:25;8.90;99.90
54680;DHT22;40578;53.178;5.846;2023-02-18T18:45:51;8.90;99.90
54680;DHT22;40578;53.178;5.846;2023-02-18T18:48:17;8.90;99.90
54680;DHT22;40578;53.178;5.846;2023-02-18T18:50:45;8.90;99.90
54680;DHT22;40578;53.178;5.846;2023-02-18T18:53:23;8.90;99.90
54680;DHT22;40578;53.178;5.846;2023-02-18T18:55:51;8.80;99.90
54680;DHT22;40578;53.178;5.846;2023-02-18T18:58:17;9.40;99.90
54680;DHT22;40578;53.178;5.846;2023-02-18T19:00:47;8.80;99.90
54680;DHT22;40578;53.178;5.846;2023-02-18T19:03:15;8.80;99.90
54680;DHT22;40578;53.178;5.846;2023-02-18T19:05:42;8.90;99.90